createdAt,value
2019-03-10T00:03:47.663Z,4.7
2019-03-10T00:09:42.623Z,5.16
2019-03-10T00:15:37.640Z,4.31
2019-03-10T00:21:32.602Z,3.83
2019-03-10T00:27:27.610Z,3.77
2019-03-10T00:33:22.634Z,3.69
2019-03-10T00:39:17.645Z,3.61
2019-03-10T00:45:12.635Z,3.41
2019-03-10T00:51:07.632Z,3.66
2019-03-10T00:57:02.643Z,3.65
2019-03-10T01:02:57.661Z,3.67
2019-03-10T01:08:52.659Z,3.55
2019-03-10T01:14:47.670Z,3.6
2019-03-10T01:20:42.648Z,3.85
2019-03-10T01:26:37.651Z,3.47
2019-03-10T01:32:32.657Z,3.17
2019-03-10T01:38:27.654Z,3.19
2019-03-10T01:44:22.693Z,3.13
2019-03-10T01:50:17.681Z,2.86
2019-03-10T01:56:12.677Z,3.32
2019-03-10T02:02:07.736Z,2.98
2019-03-10T02:08:02.700Z,2.57
2019-03-10T02:13:57.669Z,2.69
2019-03-10T02:19:52.670Z,2.32
2019-03-10T02:25:47.717Z,2.58
2019-03-10T02:31:42.738Z,2.61
2019-03-10T02:37:37.687Z,2.64
2019-03-10T02:43:32.718Z,2.99
2019-03-10T02:49:27.713Z,2.37
2019-03-10T02:55:22.739Z,2.6
2019-03-10T03:01:17.709Z,1.98
2019-03-10T03:07:12.684Z,2.76
2019-03-10T03:13:07.700Z,2.55
2019-03-10T03:19:02.703Z,2.39
2019-03-10T03:24:57.727Z,2.91
2019-03-10T03:30:52.744Z,2.21
2019-03-10T03:36:47.741Z,2.37
2019-03-10T03:42:42.723Z,2.35
2019-03-10T03:48:37.765Z,3.07
2019-03-10T03:54:32.715Z,2.87
2019-03-10T04:00:27.733Z,2.4
2019-03-10T04:06:22.786Z,2.81
2019-03-10T04:12:17.716Z,2.7
2019-03-10T04:18:12.786Z,2.37
2019-03-10T04:24:07.734Z,2.88
2019-03-10T04:30:02.765Z,2.55
2019-03-10T04:35:57.738Z,2.98
2019-03-10T04:41:52.757Z,3.12
2019-03-10T04:47:47.741Z,2.6
2019-03-10T04:53:42.763Z,2.73
2019-03-10T04:59:37.786Z,3.03
2019-03-10T05:05:32.766Z,2.68
2019-03-10T05:11:27.771Z,2.24
2019-03-10T05:17:22.768Z,2.79
2019-03-10T05:23:17.777Z,2.24
2019-03-10T05:29:12.800Z,2.45
2019-03-10T05:35:07.795Z,2.53
2019-03-10T05:41:02.840Z,2.57
2019-03-10T05:46:57.780Z,2.42
2019-03-10T05:52:52.805Z,2.82
2019-03-10T05:58:47.828Z,2.35
2019-03-10T06:04:42.797Z,2.38
2019-03-10T06:10:37.843Z,2.6
2019-03-10T06:16:32.828Z,2.31
2019-03-10T06:22:27.809Z,2.7
2019-03-10T06:28:22.794Z,2.51
2019-03-10T06:34:17.790Z,2.97
2019-03-10T06:40:12.834Z,2.53
2019-03-10T06:46:07.814Z,3.37
2019-03-10T06:52:02.835Z,4.37
2019-03-10T06:57:57.834Z,4.51
2019-03-10T07:03:52.854Z,4.06
2019-03-10T07:09:47.865Z,3.77
2019-03-10T07:15:42.818Z,3.3
2019-03-10T07:21:37.859Z,3.36
2019-03-10T07:27:32.869Z,3.44
2019-03-10T07:33:27.874Z,3.53
2019-03-10T07:39:22.845Z,3.72
2019-03-10T07:45:17.863Z,3.71
2019-03-10T07:51:12.854Z,3.92
2019-03-10T07:57:07.851Z,3.83
2019-03-10T08:03:02.852Z,5.17
2019-03-10T08:08:57.862Z,4.36
2019-03-10T08:14:52.864Z,3.96
2019-03-10T08:20:47.863Z,4.38
2019-03-10T08:26:42.865Z,4.95
2019-03-10T08:32:37.872Z,4.52
2019-03-10T08:38:32.889Z,4.38
2019-03-10T08:44:27.866Z,4.32
2019-03-10T08:50:22.903Z,5.4
2019-03-10T08:56:17.915Z,4.15
2019-03-10T09:02:12.918Z,4.49
2019-03-10T09:08:07.915Z,3.93
2019-03-10T09:14:02.908Z,4.9
2019-03-10T09:19:57.891Z,4.42
2019-03-10T09:25:52.894Z,4.55
2019-03-10T09:31:47.979Z,4.62
2019-03-10T09:37:42.926Z,5
2019-03-10T09:43:37.920Z,5.87
2019-03-10T09:49:32.928Z,5.26
2019-03-10T09:55:27.917Z,6.49
2019-03-10T10:01:22.901Z,4.97
2019-03-10T10:07:17.955Z,6.01
2019-03-10T10:13:12.952Z,5.43
2019-03-10T10:19:07.928Z,5.06
2019-03-10T10:25:02.954Z,4.56
2019-03-10T10:30:57.943Z,4.03
2019-03-10T10:36:52.913Z,3.98
2019-03-10T10:42:47.960Z,4.65
2019-03-10T10:48:42.928Z,4.21
2019-03-10T10:54:37.936Z,4.69
2019-03-10T11:00:32.963Z,4.69
2019-03-10T11:06:27.996Z,4.77
2019-03-10T11:12:22.959Z,4.77
2019-03-10T11:18:17.981Z,5.1
2019-03-10T11:24:12.965Z,4.98
2019-03-10T11:30:07.997Z,5.22
2019-03-10T11:36:02.986Z,6.04
2019-03-10T11:41:57.972Z,6.43
2019-03-10T11:47:53.021Z,7.02
2019-03-10T11:53:47.964Z,6.73
2019-03-10T11:59:42.985Z,9.63
2019-03-10T12:05:38.004Z,7.99
2019-03-10T12:11:33.001Z,5.25
2019-03-10T12:17:27.982Z,5.11
2019-03-10T12:23:23.006Z,8.68
2019-03-10T12:29:18.011Z,3.69
2019-03-10T12:35:12.982Z,2.7
2019-03-10T12:41:07.996Z,3.83
2019-03-10T12:47:03.004Z,8.87
2019-03-10T12:52:58.033Z,3.66
2019-03-10T12:58:53.044Z,6.98
2019-03-10T13:04:48.097Z,3.98
2019-03-10T13:10:43.028Z,3.53
2019-03-10T13:16:38.012Z,4.04
2019-03-10T13:22:33.030Z,6.36
2019-03-10T13:28:28.099Z,3.67
2019-03-10T13:34:23.098Z,5.47
2019-03-10T13:40:18.037Z,4.5
2019-03-10T13:46:13.031Z,5.34
2019-03-10T13:52:08.077Z,5.76
2019-03-10T13:58:03.054Z,6.78
2019-03-10T14:04:00.043Z,4.51
2019-03-10T14:09:53.050Z,4.83
2019-03-10T14:15:48.092Z,4.66
2019-03-10T14:21:43.072Z,4.67
2019-03-10T14:27:38.055Z,4.73
2019-03-10T14:33:33.068Z,4.98
2019-03-10T14:39:28.089Z,4.77
2019-03-10T14:45:23.060Z,4.22
2019-03-10T14:51:18.063Z,5.93
2019-03-10T14:57:13.096Z,5.83
2019-03-10T15:03:08.079Z,6.32
2019-03-10T15:09:03.068Z,6.05
2019-03-10T15:14:58.123Z,5.47
2019-03-10T15:20:53.096Z,5.75
2019-03-10T15:26:48.095Z,8.39
2019-03-10T15:32:43.083Z,6.39
2019-03-10T15:38:38.089Z,6.16
2019-03-10T15:44:33.100Z,7.24
2019-03-10T15:50:28.110Z,7.82
2019-03-10T15:56:23.095Z,6.54
2019-03-10T16:02:18.200Z,5.71
2019-03-10T16:08:13.140Z,6.61
2019-03-10T16:14:08.123Z,8.62
2019-03-10T16:20:03.114Z,9.77
2019-03-10T16:25:58.124Z,9.49
2019-03-10T16:31:53.154Z,11.17
2019-03-10T16:37:48.114Z,10.55
2019-03-10T16:43:43.184Z,9.6
2019-03-10T16:49:38.136Z,12.91
2019-03-10T16:55:33.184Z,14.02
2019-03-10T17:01:28.163Z,11.45
2019-03-10T17:07:23.136Z,12.7
2019-03-10T17:13:18.168Z,15.39
2019-03-10T17:19:13.148Z,18.53
2019-03-10T17:25:08.169Z,18.74
2019-03-10T17:31:03.161Z,50.61
2019-03-10T17:36:58.198Z,25.11
2019-03-10T17:42:53.164Z,20.33
2019-03-10T17:48:48.156Z,26.6
2019-03-10T17:54:43.161Z,34.53
2019-03-10T18:00:38.167Z,27.51
2019-03-10T18:06:33.164Z,16.76
2019-03-10T18:12:28.196Z,16.33
2019-03-10T18:18:23.196Z,14.23
2019-03-10T18:24:18.213Z,15.04
2019-03-10T18:30:13.180Z,17.68
2019-03-10T18:36:08.191Z,17.32
2019-03-10T18:42:03.202Z,18.59
2019-03-10T18:47:58.212Z,19.49
2019-03-10T18:53:53.212Z,18.59
2019-03-10T18:59:48.199Z,20.96
2019-03-10T19:05:43.210Z,22.58
2019-03-10T19:11:38.214Z,21.55
2019-03-10T19:17:33.218Z,24.02
2019-03-10T19:23:28.264Z,23.61
2019-03-10T19:29:23.225Z,20.91
2019-03-10T19:35:18.231Z,18.89
2019-03-10T19:41:13.219Z,19.14
2019-03-10T19:47:08.248Z,26.84
2019-03-10T19:53:03.232Z,19.66
2019-03-10T19:58:58.259Z,19.88
2019-03-10T20:04:53.281Z,20.39
2019-03-10T20:10:48.246Z,23.35
2019-03-10T20:16:43.233Z,25.1
2019-03-10T20:22:38.233Z,23.82
2019-03-10T20:28:33.307Z,24.29
2019-03-10T20:34:28.280Z,24.02
2019-03-10T20:40:23.271Z,24.87
2019-03-10T20:46:18.247Z,21.8
2019-03-10T20:52:13.270Z,22.3
2019-03-10T20:58:08.283Z,20.84
2019-03-10T21:04:03.267Z,20.99
2019-03-10T21:09:58.324Z,22.34
2019-03-10T21:15:53.324Z,20.8
2019-03-10T21:21:48.279Z,23.13
2019-03-10T21:27:43.293Z,20.42
2019-03-10T21:33:38.321Z,19.18
2019-03-10T21:39:34.707Z,13.84
2019-03-10T21:45:28.314Z,18.93
2019-03-10T21:51:23.323Z,19.91
2019-03-10T21:57:18.301Z,17.32
2019-03-10T22:03:13.329Z,17.07
2019-03-10T22:09:08.310Z,16.66
2019-03-10T22:15:03.311Z,17.41
2019-03-10T22:20:58.324Z,19.15
2019-03-10T22:26:53.337Z,15.22
2019-03-10T22:32:48.375Z,15.57
2019-03-10T22:38:43.330Z,16.06
2019-03-10T22:44:38.359Z,17.28
2019-03-10T22:50:33.346Z,19.03
2019-03-10T22:56:28.376Z,15.84
2019-03-10T23:02:23.367Z,14.62
2019-03-10T23:08:18.343Z,14.6
2019-03-10T23:14:13.338Z,14.75
2019-03-10T23:20:08.325Z,13.8
2019-03-10T23:26:03.345Z,13.6
2019-03-10T23:31:58.362Z,13.73
2019-03-10T23:37:53.358Z,13.38
2019-03-10T23:43:48.359Z,12.28
2019-03-10T23:49:43.389Z,11.65
2019-03-10T23:55:38.353Z,16.25
